createdAt,value
2023-03-06T00:01:33.683Z,6.27
2023-03-06T00:04:02.079Z,11.37
2023-03-06T00:06:30.979Z,9.47
2023-03-06T00:08:59.760Z,15.60
2023-03-06T00:11:30.328Z,6.57
2023-03-06T00:13:58.807Z,4.40
2023-03-06T00:16:27.503Z,5.43
2023-03-06T00:18:56.205Z,11.60
2023-03-06T00:21:30.985Z,8.10
2023-03-06T00:23:59.769Z,6.73
2023-03-06T00:26:30.066Z,11.43
2023-03-06T00:28:59.229Z,6.50
2023-03-06T00:31:27.821Z,15.00
2023-03-06T00:33:56.311Z,27.43
2023-03-06T00:36:25.339Z,13.80
2023-03-06T00:38:53.783Z,12.00
2023-03-06T00:41:22.670Z,11.53
2023-03-06T00:43:52.484Z,11.33
2023-03-06T00:46:21.093Z,18.20
2023-03-06T00:48:49.689Z,24.00
2023-03-06T00:51:20.074Z,17.80
2023-03-06T00:53:48.715Z,9.13
2023-03-06T00:56:19.564Z,9.07
2023-03-06T00:58:48.299Z,8.70
2023-03-06T01:01:18.514Z,7.10
2023-03-06T01:03:47.284Z,6.70
2023-03-06T01:06:16.234Z,11.03
2023-03-06T01:08:44.896Z,6.27
2023-03-06T01:11:13.730Z,9.07
2023-03-06T01:13:42.616Z,11.23
2023-03-06T01:16:14.169Z,4.90
2023-03-06T01:18:44.584Z,5.83
2023-03-06T01:21:14.587Z,8.43
2023-03-06T01:23:43.795Z,10.13
2023-03-06T01:26:13.297Z,8.73
2023-03-06T01:28:42.486Z,6.63
2023-03-06T01:31:11.460Z,6.27
2023-03-06T01:33:40.324Z,5.97
2023-03-06T01:36:13.096Z,6.67
2023-03-06T01:38:41.645Z,4.77
2023-03-06T01:41:11.279Z,10.77
2023-03-06T01:43:42.586Z,8.97
2023-03-06T01:46:35.018Z,7.20
2023-03-06T01:49:07.448Z,5.47
2023-03-06T01:51:40.778Z,6.37
2023-03-06T01:54:11.355Z,5.07
2023-03-06T01:56:41.462Z,6.77
2023-03-06T01:59:10.056Z,5.10
2023-03-06T02:01:40.212Z,15.00
2023-03-06T02:04:09.456Z,7.43
2023-03-06T02:06:43.603Z,4.37
2023-03-06T02:09:14.087Z,5.73
2023-03-06T02:11:44.388Z,6.00
2023-03-06T02:14:14.304Z,5.67
2023-03-06T02:16:43.584Z,10.87
2023-03-06T02:19:22.680Z,14.83
2023-03-06T02:21:53.103Z,18.17
2023-03-06T02:24:29.777Z,22.37
2023-03-06T02:27:01.853Z,23.70
2023-03-06T02:29:31.829Z,21.60
2023-03-06T02:32:00.737Z,17.97
2023-03-06T02:34:59.429Z,15.53
2023-03-06T02:37:30.310Z,15.70
2023-03-06T02:40:03.370Z,14.70
2023-03-06T02:42:33.575Z,6.77
2023-03-06T02:45:03.839Z,5.77
2023-03-06T02:47:32.479Z,6.00
2023-03-06T02:50:01.060Z,6.83
2023-03-06T02:52:33.961Z,7.40
2023-03-06T02:55:02.742Z,7.20
2023-03-06T02:57:33.343Z,5.17
2023-03-06T03:00:01.857Z,5.07
2023-03-06T03:02:30.556Z,5.30
2023-03-06T03:04:59.541Z,5.17
2023-03-06T03:07:28.069Z,7.43
2023-03-06T03:09:56.956Z,6.60
2023-03-06T03:12:25.833Z,5.73
2023-03-06T03:14:56.209Z,7.00
2023-03-06T03:17:25.541Z,5.30
2023-03-06T03:19:54.707Z,10.77
2023-03-06T03:22:23.384Z,8.20
2023-03-06T03:24:52.068Z,8.53
2023-03-06T03:27:20.854Z,4.87
2023-03-06T03:29:49.351Z,5.97
2023-03-06T03:32:19.961Z,5.73
2023-03-06T03:34:48.401Z,7.70
2023-03-06T03:37:17.656Z,10.93
2023-03-06T03:39:46.521Z,5.47
2023-03-06T03:42:15.371Z,8.60
2023-03-06T03:44:43.973Z,6.10
2023-03-06T03:47:12.693Z,6.40
2023-03-06T03:49:42.875Z,7.83
2023-03-06T03:52:11.685Z,10.30
2023-03-06T03:54:40.575Z,13.60
2023-03-06T03:57:09.152Z,12.50
2023-03-06T03:59:37.649Z,20.07
2023-03-06T04:02:06.300Z,10.57
2023-03-06T04:04:35.379Z,7.80
2023-03-06T04:07:05.505Z,6.13
2023-03-06T04:09:34.236Z,9.67
2023-03-06T04:14:49.280Z,10.00
2023-03-06T04:17:17.874Z,5.70
2023-03-06T04:19:46.491Z,12.90
2023-03-06T04:22:16.717Z,8.50
2023-03-06T04:24:49.081Z,6.87
2023-03-06T04:27:17.887Z,5.00
2023-03-06T04:29:46.375Z,8.10
2023-03-06T04:32:16.296Z,6.17
2023-03-06T04:34:44.821Z,10.63
2023-03-06T04:37:22.139Z,19.20
2023-03-06T04:39:50.777Z,10.23
2023-03-06T04:42:21.746Z,8.83
2023-03-06T04:44:50.416Z,13.93
2023-03-06T04:47:19.323Z,7.20
2023-03-06T04:49:48.904Z,14.63
2023-03-06T04:52:17.480Z,9.23
2023-03-06T04:54:47.497Z,12.83
2023-03-06T04:57:16.390Z,11.10
2023-03-06T04:59:44.952Z,17.83
2023-03-06T05:02:13.995Z,8.60
2023-03-06T05:04:42.720Z,10.47
2023-03-06T05:07:11.787Z,7.20
2023-03-06T05:09:42.874Z,12.30
2023-03-06T05:12:12.853Z,13.60
2023-03-06T05:14:41.353Z,10.87
2023-03-06T05:17:10.344Z,9.73
2023-03-06T05:19:38.988Z,10.23
2023-03-06T05:22:14.871Z,11.00
2023-03-06T05:24:43.682Z,6.13
2023-03-06T05:27:16.538Z,9.37
2023-03-06T05:29:45.432Z,16.10
2023-03-06T05:32:14.575Z,14.20
2023-03-06T05:34:43.398Z,12.30
2023-03-06T05:37:12.235Z,10.10
2023-03-06T05:39:41.571Z,12.13
2023-03-06T05:42:10.321Z,15.20
2023-03-06T05:44:41.840Z,12.83
2023-03-06T05:47:12.119Z,11.30
2023-03-06T05:49:41.709Z,10.97
2023-03-06T05:52:11.085Z,8.60
2023-03-06T05:54:43.263Z,13.00
2023-03-06T05:57:11.746Z,16.53
2023-03-06T05:59:43.334Z,17.40
2023-03-06T06:02:12.032Z,9.60
2023-03-06T06:04:40.214Z,7.50
2023-03-06T06:07:12.895Z,7.50
2023-03-06T06:09:41.772Z,7.37
2023-03-06T06:12:11.782Z,8.00
2023-03-06T06:14:42.005Z,14.57
2023-03-06T06:17:13.152Z,11.70
2023-03-06T06:19:41.795Z,8.90
2023-03-06T06:22:10.852Z,9.67
2023-03-06T06:24:39.810Z,10.00
2023-03-06T06:27:08.824Z,7.60
2023-03-06T06:29:37.397Z,10.23
2023-03-06T06:32:08.411Z,6.80
2023-03-06T06:34:37.162Z,12.27
2023-03-06T06:37:05.845Z,13.30
2023-03-06T06:39:35.098Z,12.63
2023-03-06T06:42:27.994Z,10.50
2023-03-06T06:44:53.172Z,15.07
2023-03-06T06:47:25.105Z,12.47
2023-03-06T06:49:55.857Z,13.30
2023-03-06T06:52:24.848Z,13.47
2023-03-06T06:54:53.810Z,12.00
2023-03-06T06:57:22.817Z,14.10
2023-03-06T06:59:53.709Z,17.57
2023-03-06T07:02:24.275Z,15.90
2023-03-06T07:05:04.071Z,12.90
2023-03-06T07:07:33.452Z,16.17
2023-03-06T07:10:02.736Z,14.40
2023-03-06T07:12:35.277Z,13.37
2023-03-06T07:15:04.705Z,14.47
2023-03-06T07:17:34.666Z,15.90
2023-03-06T07:20:04.095Z,16.60
2023-03-06T07:22:44.800Z,18.80
2023-03-06T07:25:44.364Z,16.87
2023-03-06T07:28:18.551Z,14.73
2023-03-06T07:30:53.334Z,23.43
2023-03-06T07:33:24.064Z,16.83
2023-03-06T07:35:53.248Z,14.63
2023-03-06T07:38:22.306Z,17.17
2023-03-06T07:40:54.427Z,18.20
2023-03-06T07:43:24.789Z,17.57
2023-03-06T07:45:59.500Z,13.43
2023-03-06T07:48:30.138Z,16.53
2023-03-06T07:51:01.881Z,14.57
2023-03-06T07:53:30.904Z,19.50
2023-03-06T07:56:00.783Z,16.97
2023-03-06T07:58:30.904Z,17.73
2023-03-06T08:00:59.940Z,17.40
2023-03-06T08:03:30.820Z,18.97
2023-03-06T08:06:07.564Z,15.30
2023-03-06T08:08:44.771Z,15.10
2023-03-06T08:11:18.013Z,12.77
2023-03-06T08:13:48.971Z,24.67
2023-03-06T08:16:29.248Z,12.90
2023-03-06T08:19:00.012Z,15.00
2023-03-06T08:21:29.634Z,13.50
2023-03-06T08:23:58.352Z,14.27
2023-03-06T08:26:31.724Z,13.03
2023-03-06T08:29:02.677Z,16.87
2023-03-06T08:31:33.529Z,15.03
2023-03-06T08:34:04.824Z,16.07
2023-03-06T08:36:38.282Z,15.37
2023-03-06T08:39:07.241Z,13.53
2023-03-06T08:41:36.228Z,18.50
2023-03-06T08:44:05.857Z,17.23
2023-03-06T08:46:35.404Z,17.43
2023-03-06T08:49:06.401Z,17.30
2023-03-06T08:51:35.110Z,15.57
2023-03-06T08:54:03.837Z,14.63
2023-03-06T08:56:34.144Z,14.83
2023-03-06T08:59:05.073Z,11.87
2023-03-06T09:01:35.354Z,18.23
2023-03-06T09:04:07.310Z,18.63
2023-03-06T09:06:38.177Z,16.00
2023-03-06T09:09:08.187Z,11.73
2023-03-06T09:11:37.245Z,17.53
2023-03-06T09:14:07.324Z,11.87
2023-03-06T09:16:36.149Z,18.73
2023-03-06T09:19:06.118Z,17.53
2023-03-06T09:21:37.244Z,15.87
2023-03-06T09:24:06.796Z,18.33
2023-03-06T09:26:45.393Z,11.83
2023-03-06T09:29:16.515Z,16.47
2023-03-06T09:31:45.480Z,15.83
2023-03-06T09:34:15.551Z,12.83
2023-03-06T09:36:56.036Z,11.40
2023-03-06T09:39:27.490Z,18.20
2023-03-06T09:41:57.652Z,12.60
2023-03-06T09:44:27.989Z,18.10
2023-03-06T09:47:12.410Z,11.97
2023-03-06T09:49:50.442Z,16.20
2023-03-06T09:52:31.209Z,14.33
2023-03-06T09:55:02.834Z,8.70
2023-03-06T09:57:35.347Z,13.37
2023-03-06T10:00:08.316Z,12.60
2023-03-06T10:02:43.217Z,13.97
2023-03-06T10:05:17.371Z,15.10
2023-03-06T10:07:48.829Z,10.77
2023-03-06T10:10:21.738Z,15.20
2023-03-06T10:12:57.986Z,14.17
2023-03-06T10:15:34.049Z,19.17
2023-03-06T10:18:05.551Z,14.60
2023-03-06T10:20:45.186Z,10.97
2023-03-06T10:23:30.352Z,12.40
2023-03-06T10:26:02.136Z,13.80
2023-03-06T10:28:36.104Z,11.97
2023-03-06T10:31:12.415Z,13.97
2023-03-06T10:33:49.266Z,11.80
2023-03-06T10:36:21.612Z,13.03
2023-03-06T10:38:53.414Z,11.73
2023-03-06T10:41:26.098Z,18.03
2023-03-06T10:44:20.409Z,12.03
2023-03-06T10:46:52.637Z,15.43
2023-03-06T10:49:27.776Z,11.47
2023-03-06T10:52:23.017Z,14.93
2023-03-06T10:54:51.673Z,12.20
2023-03-06T10:57:25.220Z,13.00
2023-03-06T10:59:55.188Z,11.33
2023-03-06T11:02:28.589Z,11.90
2023-03-06T11:04:58.716Z,14.80
2023-03-06T11:07:29.738Z,16.00
2023-03-06T11:10:04.537Z,17.10
2023-03-06T11:12:34.435Z,17.20
2023-03-06T11:15:28.049Z,17.43
2023-03-06T11:18:01.432Z,21.70
2023-03-06T11:20:48.665Z,15.03
2023-03-06T11:23:25.754Z,14.90
2023-03-06T11:25:59.185Z,19.50
2023-03-06T11:28:30.423Z,16.87
2023-03-06T11:31:03.307Z,13.50
2023-03-06T11:33:39.453Z,14.67
2023-03-06T11:36:17.201Z,14.93
2023-03-06T11:38:50.672Z,16.97
2023-03-06T11:41:29.549Z,18.30
2023-03-06T11:44:10.188Z,15.47
2023-03-06T11:46:41.172Z,26.50
2023-03-06T11:49:17.471Z,16.70
2023-03-06T11:51:51.404Z,16.37
2023-03-06T11:54:21.898Z,17.33
2023-03-06T11:56:54.965Z,19.77
2023-03-06T11:59:36.067Z,16.63
2023-03-06T12:02:08.960Z,17.07
2023-03-06T12:04:43.540Z,18.13
2023-03-06T12:07:29.876Z,14.70
2023-03-06T12:10:07.637Z,15.87
2023-03-06T12:12:58.896Z,18.73
2023-03-06T12:15:41.624Z,18.50
2023-03-06T12:18:23.081Z,17.07
2023-03-06T12:21:02.422Z,15.97
2023-03-06T12:23:45.899Z,18.97
2023-03-06T12:26:31.273Z,18.80
2023-03-06T12:29:10.818Z,17.93
2023-03-06T12:31:54.489Z,16.73
2023-03-06T12:34:31.308Z,15.40
2023-03-06T12:37:06.124Z,13.00
2023-03-06T12:39:49.183Z,18.97
2023-03-06T12:42:42.897Z,15.60
2023-03-06T12:45:35.005Z,21.27
2023-03-06T12:48:04.776Z,20.90
2023-03-06T12:50:37.194Z,15.17
2023-03-06T12:53:10.648Z,14.37
2023-03-06T12:55:42.742Z,17.23
2023-03-06T12:58:42.953Z,19.07
2023-03-06T13:01:20.245Z,21.37
2023-03-06T13:03:59.373Z,19.93
2023-03-06T13:06:39.248Z,20.77
2023-03-06T13:09:19.326Z,16.30
2023-03-06T13:12:10.244Z,19.30
2023-03-06T13:14:55.293Z,17.20
2023-03-06T13:17:37.777Z,22.80
2023-03-06T13:20:29.149Z,16.30
2023-03-06T13:23:00.758Z,19.40
2023-03-06T13:25:39.693Z,17.23
2023-03-06T13:28:24.786Z,19.40
2023-03-06T13:30:56.166Z,18.10
2023-03-06T13:33:58.299Z,20.53
2023-03-06T13:36:32.495Z,21.53
2023-03-06T13:39:08.946Z,19.27
2023-03-06T13:41:56.312Z,21.43
2023-03-06T13:44:51.163Z,20.63
2023-03-06T13:47:59.070Z,16.33
2023-03-06T13:50:40.518Z,19.80
2023-03-06T13:53:31.777Z,19.53
2023-03-06T13:56:11.095Z,31.77
2023-03-06T13:58:56.332Z,18.30
2023-03-06T14:01:29.686Z,12.93
2023-03-06T14:04:35.344Z,18.50
2023-03-06T14:07:12.403Z,17.77
2023-03-06T14:09:44.735Z,20.27
2023-03-06T14:12:19.253Z,16.50
2023-03-06T14:14:50.925Z,16.77
2023-03-06T14:17:25.143Z,17.93
2023-03-06T14:19:59.075Z,21.73
2023-03-06T14:22:27.827Z,23.17
2023-03-06T14:24:59.975Z,15.40
2023-03-06T14:27:44.280Z,17.10
2023-03-06T14:30:15.263Z,13.90
2023-03-06T14:32:47.597Z,16.93
2023-03-06T14:35:29.610Z,14.53
2023-03-06T14:38:03.347Z,22.53
2023-03-06T14:40:37.825Z,17.20
2023-03-06T14:43:23.708Z,20.07
2023-03-06T14:45:55.148Z,21.43
2023-03-06T14:48:24.367Z,17.90
2023-03-06T14:50:57.883Z,21.97
2023-03-06T14:53:29.075Z,19.37
2023-03-06T14:56:04.395Z,14.53
2023-03-06T14:58:35.419Z,20.13
2023-03-06T15:01:09.116Z,16.17
2023-03-06T15:03:44.313Z,15.97
2023-03-06T15:06:19.889Z,14.70
2023-03-06T15:08:50.409Z,17.20
2023-03-06T15:11:19.285Z,12.70
2023-03-06T15:14:02.446Z,20.97
2023-03-06T15:16:45.595Z,22.80
2023-03-06T15:19:20.582Z,14.00
2023-03-06T15:21:52.197Z,12.50
2023-03-06T15:24:35.486Z,17.27
2023-03-06T15:27:06.164Z,20.07
2023-03-06T15:29:35.446Z,19.40
2023-03-06T15:32:31.299Z,18.27
2023-03-06T15:35:29.106Z,24.43
2023-03-06T15:37:59.928Z,18.03
2023-03-06T15:40:32.016Z,21.60
2023-03-06T15:43:00.916Z,20.63
2023-03-06T15:45:32.299Z,16.07
2023-03-06T15:50:31.776Z,19.50
2023-03-06T15:53:05.945Z,17.07
2023-03-06T15:55:34.901Z,21.20
2023-03-06T15:58:04.856Z,19.80
2023-03-06T16:00:35.980Z,19.70
2023-03-06T16:03:04.920Z,21.60
2023-03-06T16:05:36.574Z,19.23
2023-03-06T16:08:07.001Z,19.97
2023-03-06T16:10:39.376Z,29.37
2023-03-06T16:13:11.699Z,22.57
2023-03-06T16:15:44.234Z,18.83
2023-03-06T16:18:14.540Z,23.27
2023-03-06T16:20:44.051Z,18.20
2023-03-06T16:23:15.624Z,22.63
2023-03-06T16:25:48.102Z,19.63
2023-03-06T16:28:17.819Z,19.10
2023-03-06T16:30:47.255Z,15.47
2023-03-06T16:33:17.879Z,14.10
2023-03-06T16:35:47.433Z,13.60
2023-03-06T16:38:18.035Z,16.50
2023-03-06T16:40:48.503Z,23.80
2023-03-06T16:43:42.911Z,24.97
2023-03-06T16:46:16.653Z,20.50
2023-03-06T16:48:45.718Z,23.37
2023-03-06T16:51:16.154Z,19.97
2023-03-06T16:53:48.980Z,20.03
2023-03-06T16:56:22.445Z,16.50
2023-03-06T16:58:52.448Z,24.50
2023-03-06T17:01:21.903Z,18.20
2023-03-06T17:03:51.345Z,20.00
2023-03-06T17:06:21.866Z,26.97
2023-03-06T17:08:52.635Z,22.20
2023-03-06T17:11:21.638Z,18.90
2023-03-06T17:13:50.353Z,22.77
2023-03-06T17:16:19.031Z,21.03
2023-03-06T17:18:49.721Z,18.00
2023-03-06T17:21:18.538Z,16.73
2023-03-06T17:23:48.434Z,22.43
2023-03-06T17:26:39.077Z,23.27
2023-03-06T17:29:07.885Z,23.50
2023-03-06T17:31:36.684Z,20.90
2023-03-06T17:34:08.184Z,21.10
2023-03-06T17:36:37.170Z,21.10
2023-03-06T17:39:08.773Z,28.77
2023-03-06T17:41:39.111Z,18.07
2023-03-06T17:44:08.210Z,16.47
2023-03-06T17:46:37.709Z,20.93
2023-03-06T17:49:06.485Z,18.07
2023-03-06T17:51:35.078Z,18.23
2023-03-06T17:54:06.879Z,18.90
2023-03-06T17:56:35.470Z,20.50
2023-03-06T17:59:05.624Z,24.57
2023-03-06T18:01:34.460Z,15.47
2023-03-06T18:04:04.594Z,17.67
2023-03-06T18:06:37.167Z,20.20
2023-03-06T18:09:07.280Z,18.87
2023-03-06T18:11:37.449Z,16.97
2023-03-06T18:14:07.478Z,19.63
2023-03-06T18:16:37.265Z,20.30
2023-03-06T18:19:08.132Z,14.30
2023-03-06T18:21:37.222Z,15.83
2023-03-06T18:24:05.912Z,20.13
2023-03-06T18:26:34.932Z,12.93
2023-03-06T18:29:05.093Z,10.90
2023-03-06T18:31:36.975Z,20.17
2023-03-06T18:34:07.672Z,14.70
2023-03-06T18:36:37.245Z,15.40
2023-03-06T18:39:08.934Z,15.57
2023-03-06T18:41:41.567Z,16.73
2023-03-06T18:44:10.110Z,18.27
2023-03-06T18:46:40.563Z,15.47
2023-03-06T18:49:09.106Z,14.03
2023-03-06T18:51:37.904Z,13.77
2023-03-06T18:54:07.796Z,18.33
2023-03-06T18:56:36.521Z,11.87
2023-03-06T18:59:06.809Z,16.53
2023-03-06T19:01:35.703Z,13.07
2023-03-06T19:04:08.218Z,16.97
2023-03-06T19:06:40.006Z,20.87
2023-03-06T19:09:11.950Z,15.43
2023-03-06T19:11:45.837Z,12.20
2023-03-06T19:14:15.916Z,14.97
2023-03-06T19:16:44.945Z,18.83
2023-03-06T19:19:15.073Z,13.60
2023-03-06T19:21:43.884Z,13.77
2023-03-06T19:24:14.357Z,12.27
2023-03-06T19:26:43.479Z,15.73
2023-03-06T19:29:12.534Z,14.77
2023-03-06T19:31:42.469Z,12.17
2023-03-06T19:34:11.795Z,14.93
2023-03-06T19:36:43.282Z,13.07
2023-03-06T19:39:16.016Z,13.20
2023-03-06T19:41:44.526Z,20.70
2023-03-06T19:44:14.954Z,12.97
2023-03-06T19:46:47.586Z,13.90
2023-03-06T19:49:22.458Z,11.70
2023-03-06T19:51:52.353Z,18.30
2023-03-06T19:54:24.791Z,18.27
2023-03-06T19:56:56.290Z,10.70
2023-03-06T19:59:25.186Z,17.47
2023-03-06T20:01:53.645Z,15.93
2023-03-06T20:04:24.148Z,25.83
2023-03-06T20:06:54.276Z,19.83
2023-03-06T20:09:23.416Z,17.63
2023-03-06T20:11:54.960Z,22.10
2023-03-06T20:14:23.742Z,15.10
2023-03-06T20:16:53.243Z,20.73
2023-03-06T20:19:23.039Z,16.83
2023-03-06T20:21:51.824Z,20.27
2023-03-06T20:24:22.314Z,21.00
2023-03-06T20:26:52.837Z,19.47
2023-03-06T20:29:21.964Z,18.67
2023-03-06T20:31:50.606Z,19.10
2023-03-06T20:34:19.482Z,17.40
2023-03-06T20:36:48.007Z,16.20
2023-03-06T20:39:21.807Z,22.73
2023-03-06T20:41:52.297Z,14.10
2023-03-06T20:44:21.210Z,14.30
2023-03-06T20:46:53.313Z,17.83
2023-03-06T20:49:22.659Z,21.50
2023-03-06T20:51:51.399Z,24.63
2023-03-06T20:54:20.362Z,19.13
2023-03-06T20:56:52.116Z,16.87
2023-03-06T20:59:20.905Z,18.77
2023-03-06T21:01:49.831Z,14.47
2023-03-06T21:04:18.569Z,22.90
2023-03-06T21:06:49.681Z,18.63
2023-03-06T21:09:19.154Z,16.90
2023-03-06T21:11:48.136Z,17.57
2023-03-06T21:14:18.687Z,18.00
2023-03-06T21:16:47.859Z,19.10
2023-03-06T21:19:16.968Z,21.13
2023-03-06T21:21:45.627Z,15.23
2023-03-06T21:24:21.232Z,18.10
2023-03-06T21:26:51.468Z,15.77
2023-03-06T21:29:21.799Z,24.27
2023-03-06T21:31:53.589Z,15.23
2023-03-06T21:34:22.398Z,18.00
2023-03-06T21:36:51.369Z,14.90
2023-03-06T21:39:20.218Z,17.37
2023-03-06T21:41:49.103Z,21.77
2023-03-06T21:44:17.566Z,15.20
2023-03-06T21:46:47.776Z,24.83
2023-03-06T21:49:16.725Z,19.63
2023-03-06T21:51:48.103Z,17.90
2023-03-06T21:54:16.666Z,24.03
2023-03-06T21:56:46.249Z,20.57
2023-03-06T21:59:16.460Z,25.97
2023-03-06T22:01:44.877Z,23.03
2023-03-06T22:04:20.715Z,25.00
2023-03-06T22:06:49.768Z,23.57
2023-03-06T22:09:20.171Z,17.80
2023-03-06T22:11:49.435Z,20.50
2023-03-06T22:14:19.103Z,18.00
2023-03-06T22:16:47.736Z,21.17
2023-03-06T22:19:17.438Z,20.63
2023-03-06T22:21:46.084Z,18.87
2023-03-06T22:24:14.752Z,20.00
2023-03-06T22:26:43.642Z,16.70
2023-03-06T22:29:12.340Z,19.53
2023-03-06T22:31:40.840Z,16.07
2023-03-06T22:34:09.268Z,20.83
2023-03-06T22:36:41.581Z,21.83
2023-03-06T22:39:14.413Z,21.77
2023-03-06T22:41:43.054Z,18.67
2023-03-06T22:44:16.881Z,18.67
2023-03-06T22:46:45.901Z,19.33
2023-03-06T22:49:17.075Z,15.33
2023-03-06T22:51:47.186Z,18.43
2023-03-06T22:54:18.538Z,17.83
2023-03-06T22:56:47.638Z,17.00
2023-03-06T22:59:16.578Z,16.73
2023-03-06T23:01:45.538Z,17.13
2023-03-06T23:04:14.566Z,22.53
2023-03-06T23:06:44.878Z,16.53
2023-03-06T23:09:17.592Z,15.07
2023-03-06T23:11:46.522Z,11.53
2023-03-06T23:14:15.888Z,18.07
2023-03-06T23:16:44.977Z,15.80
2023-03-06T23:19:13.955Z,18.20
2023-03-06T23:21:42.518Z,22.90
2023-03-06T23:24:17.189Z,21.80
2023-03-06T23:26:45.983Z,17.03
2023-03-06T23:29:14.676Z,22.10
2023-03-06T23:31:46.051Z,16.83
2023-03-06T23:34:14.628Z,19.20
2023-03-06T23:36:43.304Z,15.10
2023-03-06T23:39:14.982Z,14.77
2023-03-06T23:41:45.867Z,17.60
2023-03-06T23:44:14.696Z,17.20
2023-03-06T23:46:46.040Z,18.23
2023-03-06T23:49:14.771Z,17.83
2023-03-06T23:51:45.964Z,13.83
2023-03-06T23:54:16.126Z,17.03
2023-03-06T23:56:44.820Z,18.37
2023-03-06T23:59:13.402Z,11.40
